sensor_id;sensor_type;location;lat;lon;timestamp;P1;durP1;ratioP1;P2;durP2;ratioP2
70806;SDS011;58882;52.170;5.386;2023-05-10T00:01:58;24.65;;;12.80;;
70806;SDS011;58882;52.170;5.386;2023-05-10T00:04:38;22.30;;;12.02;;
70806;SDS011;58882;52.170;5.386;2023-05-10T00:07:25;24.27;;;12.48;;
70806;SDS011;58882;52.170;5.386;2023-05-10T00:12:52;21.33;;;11.88;;
70806;SDS011;58882;52.170;5.386;2023-05-10T00:15:32;22.90;;;12.73;;
70806;SDS011;58882;52.170;5.386;2023-05-10T00:18:19;21.95;;;12.43;;
70806;SDS011;58882;52.170;5.386;2023-05-10T00:20:59;23.42;;;12.75;;
70806;SDS011;58882;52.170;5.386;2023-05-10T00:23:53;22.75;;;12.60;;
70806;SDS011;58882;52.170;5.386;2023-05-10T00:26:34;24.83;;;14.05;;
70806;SDS011;58882;52.170;5.386;2023-05-10T00:32:01;26.52;;;14.98;;
70806;SDS011;58882;52.170;5.386;2023-05-10T00:34:55;27.50;;;14.75;;
70806;SDS011;58882;52.170;5.386;2023-05-10T00:40:22;28.77;;;15.68;;
70806;SDS011;58882;52.170;5.386;2023-05-10T00:43:05;32.17;;;16.75;;
70806;SDS011;58882;52.170;5.386;2023-05-10T00:48:39;30.95;;;16.13;;
70806;SDS011;58882;52.170;5.386;2023-05-10T00:51:26;31.50;;;16.60;;
70806;SDS011;58882;52.170;5.386;2023-05-10T00:53:59;30.48;;;16.10;;
70806;SDS011;58882;52.170;5.386;2023-05-10T00:56:53;34.63;;;17.63;;
70806;SDS011;58882;52.170;5.386;2023-05-10T00:59:33;34.28;;;17.90;;
70806;SDS011;58882;52.170;5.386;2023-05-10T01:02:20;39.05;;;19.80;;
70806;SDS011;58882;52.170;5.386;2023-05-10T01:07:55;40.00;;;19.75;;
70806;SDS011;58882;52.170;5.386;2023-05-10T01:10:35;38.40;;;19.65;;
70806;SDS011;58882;52.170;5.386;2023-05-10T01:13:30;38.17;;;19.98;;
70806;SDS011;58882;52.170;5.386;2023-05-10T01:16:13;39.92;;;20.23;;
70806;SDS011;58882;52.170;5.386;2023-05-10T01:19:00;40.38;;;19.98;;
70806;SDS011;58882;52.170;5.386;2023-05-10T01:30:34;39.10;;;19.58;;
70806;SDS011;58882;52.170;5.386;2023-05-10T01:33:52;38.78;;;19.33;;
70806;SDS011;58882;52.170;5.386;2023-05-10T01:36:54;42.35;;;21.38;;
70806;SDS011;58882;52.170;5.386;2023-05-10T01:39:39;38.47;;;19.45;;
70806;SDS011;58882;52.170;5.386;2023-05-10T01:42:36;37.78;;;18.55;;
70806;SDS011;58882;52.170;5.386;2023-05-10T01:45:29;42.47;;;20.55;;
70806;SDS011;58882;52.170;5.386;2023-05-10T01:48:26;43.10;;;20.73;;
70806;SDS011;58882;52.170;5.386;2023-05-10T01:51:07;42.10;;;20.88;;
70806;SDS011;58882;52.170;5.386;2023-05-10T01:53:59;41.65;;;19.50;;
70806;SDS011;58882;52.170;5.386;2023-05-10T01:56:41;43.17;;;20.85;;
70806;SDS011;58882;52.170;5.386;2023-05-10T01:59:37;44.42;;;20.73;;
70806;SDS011;58882;52.170;5.386;2023-05-10T02:02:22;41.97;;;20.65;;
70806;SDS011;58882;52.170;5.386;2023-05-10T02:05:12;42.63;;;20.55;;
70806;SDS011;58882;52.170;5.386;2023-05-10T02:07:53;39.75;;;20.35;;
70806;SDS011;58882;52.170;5.386;2023-05-10T02:10:42;45.55;;;20.08;;
70806;SDS011;58882;52.170;5.386;2023-05-10T02:13:26;44.17;;;20.60;;
70806;SDS011;58882;52.170;5.386;2023-05-10T02:16:16;47.67;;;21.35;;
70806;SDS011;58882;52.170;5.386;2023-05-10T02:18:58;45.35;;;21.00;;
70806;SDS011;58882;52.170;5.386;2023-05-10T02:21:48;41.67;;;20.98;;
70806;SDS011;58882;52.170;5.386;2023-05-10T02:24:31;43.50;;;20.55;;
70806;SDS011;58882;52.170;5.386;2023-05-10T02:27:19;41.85;;;21.35;;
70806;SDS011;58882;52.170;5.386;2023-05-10T02:30:00;47.10;;;22.35;;
70806;SDS011;58882;52.170;5.386;2023-05-10T02:32:49;44.80;;;21.48;;
70806;SDS011;58882;52.170;5.386;2023-05-10T02:35:46;40.05;;;20.50;;
70806;SDS011;58882;52.170;5.386;2023-05-10T02:38:20;46.55;;;21.25;;
70806;SDS011;58882;52.170;5.386;2023-05-10T02:41:15;42.70;;;20.42;;
70806;SDS011;58882;52.170;5.386;2023-05-10T02:43:52;43.90;;;21.23;;
70806;SDS011;58882;52.170;5.386;2023-05-10T02:46:51;42.70;;;21.10;;
70806;SDS011;58882;52.170;5.386;2023-05-10T02:49:24;46.33;;;20.98;;
70806;SDS011;58882;52.170;5.386;2023-05-10T02:55:03;41.83;;;20.30;;
70806;SDS011;58882;52.170;5.386;2023-05-10T02:57:59;46.75;;;22.05;;
70806;SDS011;58882;52.170;5.386;2023-05-10T03:00:40;47.63;;;21.50;;
70806;SDS011;58882;52.170;5.386;2023-05-10T03:03:27;48.10;;;21.85;;
70806;SDS011;58882;52.170;5.386;2023-05-10T03:06:07;47.25;;;21.65;;
70806;SDS011;58882;52.170;5.386;2023-05-10T03:08:55;48.00;;;22.85;;
70806;SDS011;58882;52.170;5.386;2023-05-10T03:17:41;51.25;;;21.13;;
70806;SDS011;58882;52.170;5.386;2023-05-10T03:20:43;46.83;;;21.15;;
70806;SDS011;58882;52.170;5.386;2023-05-10T03:23:35;43.80;;;19.52;;
70806;SDS011;58882;52.170;5.386;2023-05-10T03:26:43;47.50;;;21.08;;
70806;SDS011;58882;52.170;5.386;2023-05-10T03:29:24;46.83;;;20.55;;
70806;SDS011;58882;52.170;5.386;2023-05-10T03:32:12;48.38;;;20.85;;
70806;SDS011;58882;52.170;5.386;2023-05-10T03:35:10;49.50;;;21.05;;
70806;SDS011;58882;52.170;5.386;2023-05-10T03:37:51;53.70;;;21.15;;
70806;SDS011;58882;52.170;5.386;2023-05-10T03:40:38;51.83;;;20.92;;
70806;SDS011;58882;52.170;5.386;2023-05-10T03:43:18;47.60;;;20.98;;
70806;SDS011;58882;52.170;5.386;2023-05-10T03:46:05;54.22;;;22.45;;
70806;SDS011;58882;52.170;5.386;2023-05-10T03:48:46;48.85;;;21.98;;
70806;SDS011;58882;52.170;5.386;2023-05-10T03:51:32;51.40;;;22.02;;
70806;SDS011;58882;52.170;5.386;2023-05-10T03:56:59;49.58;;;21.83;;
70806;SDS011;58882;52.170;5.386;2023-05-10T03:59:40;52.80;;;21.85;;
70806;SDS011;58882;52.170;5.386;2023-05-10T04:02:45;51.03;;;21.23;;
70806;SDS011;58882;52.170;5.386;2023-05-10T04:05:19;58.95;;;22.42;;
70806;SDS011;58882;52.170;5.386;2023-05-10T04:08:13;53.92;;;23.15;;
70806;SDS011;58882;52.170;5.386;2023-05-10T04:10:48;55.15;;;22.60;;
70806;SDS011;58882;52.170;5.386;2023-05-10T04:16:22;58.70;;;22.50;;
70806;SDS011;58882;52.170;5.386;2023-05-10T04:19:09;51.65;;;21.48;;
70806;SDS011;58882;52.170;5.386;2023-05-10T04:24:43;56.67;;;20.73;;
70806;SDS011;58882;52.170;5.386;2023-05-10T04:27:23;57.45;;;23.25;;
70806;SDS011;58882;52.170;5.386;2023-05-10T04:30:18;56.70;;;23.63;;
70806;SDS011;58882;52.170;5.386;2023-05-10T04:33:04;58.25;;;23.38;;
70806;SDS011;58882;52.170;5.386;2023-05-10T04:35:58;60.28;;;23.45;;
70806;SDS011;58882;52.170;5.386;2023-05-10T04:38:38;57.75;;;24.05;;
70806;SDS011;58882;52.170;5.386;2023-05-10T04:41:32;54.75;;;22.75;;
70806;SDS011;58882;52.170;5.386;2023-05-10T04:46:59;59.55;;;22.38;;
70806;SDS011;58882;52.170;5.386;2023-05-10T04:49:44;57.03;;;23.17;;
70806;SDS011;58882;52.170;5.386;2023-05-10T04:52:31;58.13;;;23.25;;
70806;SDS011;58882;52.170;5.386;2023-05-10T04:55:11;50.88;;;22.20;;
70806;SDS011;58882;52.170;5.386;2023-05-10T04:57:58;52.47;;;23.23;;
70806;SDS011;58882;52.170;5.386;2023-05-10T05:00:38;52.95;;;21.75;;
70806;SDS011;58882;52.170;5.386;2023-05-10T05:06:12;52.47;;;22.38;;
70806;SDS011;58882;52.170;5.386;2023-05-10T05:09:07;49.72;;;22.40;;
70806;SDS011;58882;52.170;5.386;2023-05-10T05:11:49;54.10;;;22.20;;
70806;SDS011;58882;52.170;5.386;2023-05-10T05:14:36;48.78;;;22.60;;
70806;SDS011;58882;52.170;5.386;2023-05-10T05:20:03;45.00;;;20.42;;
70806;SDS011;58882;52.170;5.386;2023-05-10T05:22:44;52.50;;;21.73;;
70806;SDS011;58882;52.170;5.386;2023-05-10T05:25:31;55.17;;;21.65;;
70806;SDS011;58882;52.170;5.386;2023-05-10T05:28:11;52.88;;;21.65;;
70806;SDS011;58882;52.170;5.386;2023-05-10T05:30:58;48.03;;;20.92;;
70806;SDS011;58882;52.170;5.386;2023-05-10T05:36:25;52.05;;;21.35;;
70806;SDS011;58882;52.170;5.386;2023-05-10T05:39:14;51.40;;;22.15;;
70806;SDS011;58882;52.170;5.386;2023-05-10T05:44:48;54.28;;;21.65;;
70806;SDS011;58882;52.170;5.386;2023-05-10T05:47:28;48.03;;;21.10;;
70806;SDS011;58882;52.170;5.386;2023-05-10T05:50:15;48.15;;;20.45;;
70806;SDS011;58882;52.170;5.386;2023-05-10T05:55:53;46.90;;;19.73;;
70806;SDS011;58882;52.170;5.386;2023-05-10T05:58:33;42.47;;;21.02;;
70806;SDS011;58882;52.170;5.386;2023-05-10T06:01:27;43.03;;;19.80;;
70806;SDS011;58882;52.170;5.386;2023-05-10T06:06:54;43.28;;;20.55;;
70806;SDS011;58882;52.170;5.386;2023-05-10T06:12:21;47.53;;;20.42;;
70806;SDS011;58882;52.170;5.386;2023-05-10T06:17:49;45.58;;;19.55;;
70806;SDS011;58882;52.170;5.386;2023-05-10T06:20:22;44.38;;;20.95;;
70806;SDS011;58882;52.170;5.386;2023-05-10T06:23:17;40.53;;;19.02;;
70806;SDS011;58882;52.170;5.386;2023-05-10T06:28:44;42.70;;;17.73;;
70806;SDS011;58882;52.170;5.386;2023-05-10T06:31:24;37.13;;;17.95;;
70806;SDS011;58882;52.170;5.386;2023-05-10T06:36:58;33.42;;;15.90;;
70806;SDS011;58882;52.170;5.386;2023-05-10T06:39:45;31.45;;;15.82;;
70806;SDS011;58882;52.170;5.386;2023-05-10T06:45:13;30.20;;;13.88;;
70806;SDS011;58882;52.170;5.386;2023-05-10T06:48:07;28.65;;;13.68;;
70806;SDS011;58882;52.170;5.386;2023-05-10T06:50:40;24.42;;;11.98;;
70806;SDS011;58882;52.170;5.386;2023-05-10T06:56:14;21.10;;;10.85;;
70806;SDS011;58882;52.170;5.386;2023-05-10T06:59:01;22.30;;;10.38;;
70806;SDS011;58882;52.170;5.386;2023-05-10T07:01:42;20.52;;;10.10;;
70806;SDS011;58882;52.170;5.386;2023-05-10T07:04:36;19.40;;;9.60;;
70806;SDS011;58882;52.170;5.386;2023-05-10T07:10:03;20.38;;;10.05;;
70806;SDS011;58882;52.170;5.386;2023-05-10T07:12:37;19.70;;;9.32;;
70806;SDS011;58882;52.170;5.386;2023-05-10T07:15:31;20.95;;;9.82;;
70806;SDS011;58882;52.170;5.386;2023-05-10T07:18:19;18.40;;;8.80;;
70806;SDS011;58882;52.170;5.386;2023-05-10T07:20:59;17.05;;;8.85;;
70806;SDS011;58882;52.170;5.386;2023-05-10T07:23:46;17.55;;;8.68;;
70806;SDS011;58882;52.170;5.386;2023-05-10T07:26:26;19.33;;;9.05;;
70806;SDS011;58882;52.170;5.386;2023-05-10T07:29:13;18.02;;;8.77;;
70806;SDS011;58882;52.170;5.386;2023-05-10T07:31:46;18.98;;;9.43;;
70806;SDS011;58882;52.170;5.386;2023-05-10T07:34:40;19.67;;;9.00;;
70806;SDS011;58882;52.170;5.386;2023-05-10T07:37:20;18.92;;;9.10;;
70806;SDS011;58882;52.170;5.386;2023-05-10T07:40:07;18.65;;;9.18;;
70806;SDS011;58882;52.170;5.386;2023-05-10T07:42:48;19.65;;;9.43;;
70806;SDS011;58882;52.170;5.386;2023-05-10T07:45:35;20.42;;;10.68;;
70806;SDS011;58882;52.170;5.386;2023-05-10T07:48:15;18.95;;;9.27;;
70806;SDS011;58882;52.170;5.386;2023-05-10T07:51:02;19.25;;;9.70;;
70806;SDS011;58882;52.170;5.386;2023-05-10T07:53:42;18.60;;;8.80;;
70806;SDS011;58882;52.170;5.386;2023-05-10T07:56:30;19.52;;;9.20;;
70806;SDS011;58882;52.170;5.386;2023-05-10T07:59:14;19.45;;;9.32;;
70806;SDS011;58882;52.170;5.386;2023-05-10T08:02:02;18.23;;;8.55;;
70806;SDS011;58882;52.170;5.386;2023-05-10T08:04:42;17.23;;;8.43;;
70806;SDS011;58882;52.170;5.386;2023-05-10T08:07:29;14.18;;;7.70;;
70806;SDS011;58882;52.170;5.386;2023-05-10T08:10:09;15.30;;;8.23;;
70806;SDS011;58882;52.170;5.386;2023-05-10T08:12:56;16.33;;;8.43;;
70806;SDS011;58882;52.170;5.386;2023-05-10T08:15:37;17.65;;;8.98;;
70806;SDS011;58882;52.170;5.386;2023-05-10T08:18:31;17.13;;;8.15;;
70806;SDS011;58882;52.170;5.386;2023-05-10T08:21:04;16.15;;;8.38;;
70806;SDS011;58882;52.170;5.386;2023-05-10T08:23:58;17.10;;;8.63;;
70806;SDS011;58882;52.170;5.386;2023-05-10T08:26:38;17.38;;;8.60;;
70806;SDS011;58882;52.170;5.386;2023-05-10T08:29:32;17.55;;;8.60;;
70806;SDS011;58882;52.170;5.386;2023-05-10T08:32:21;17.65;;;8.38;;
70806;SDS011;58882;52.170;5.386;2023-05-10T08:35:15;18.42;;;9.18;;
70806;SDS011;58882;52.170;5.386;2023-05-10T08:38:09;17.40;;;9.02;;
70806;SDS011;58882;52.170;5.386;2023-05-10T08:40:49;17.60;;;9.35;;
70806;SDS011;58882;52.170;5.386;2023-05-10T08:43:40;16.65;;;8.85;;
70806;SDS011;58882;52.170;5.386;2023-05-10T08:46:25;15.88;;;9.15;;
70806;SDS011;58882;52.170;5.386;2023-05-10T08:49:21;17.95;;;9.18;;
70806;SDS011;58882;52.170;5.386;2023-05-10T08:52:03;15.65;;;8.68;;
70806;SDS011;58882;52.170;5.386;2023-05-10T08:54:51;16.70;;;8.57;;
70806;SDS011;58882;52.170;5.386;2023-05-10T08:57:32;13.45;;;7.75;;
70806;SDS011;58882;52.170;5.386;2023-05-10T09:00:19;14.23;;;8.05;;
70806;SDS011;58882;52.170;5.386;2023-05-10T09:03:03;15.60;;;8.82;;
70806;SDS011;58882;52.170;5.386;2023-05-10T09:05:51;15.38;;;7.72;;
70806;SDS011;58882;52.170;5.386;2023-05-10T09:08:31;12.93;;;7.32;;
70806;SDS011;58882;52.170;5.386;2023-05-10T09:11:18;14.20;;;7.28;;
70806;SDS011;58882;52.170;5.386;2023-05-10T09:14:00;13.55;;;7.35;;
70806;SDS011;58882;52.170;5.386;2023-05-10T09:16:48;14.02;;;7.20;;
70806;SDS011;58882;52.170;5.386;2023-05-10T09:19:28;13.50;;;7.57;;
70806;SDS011;58882;52.170;5.386;2023-05-10T09:22:15;12.25;;;6.15;;
70806;SDS011;58882;52.170;5.386;2023-05-10T09:25:09;9.88;;;5.40;;
70806;SDS011;58882;52.170;5.386;2023-05-10T09:27:57;11.55;;;5.60;;
70806;SDS011;58882;52.170;5.386;2023-05-10T09:30:37;11.35;;;4.97;;
70806;SDS011;58882;52.170;5.386;2023-05-10T09:33:43;9.18;;;4.47;;
70806;SDS011;58882;52.170;5.386;2023-05-10T09:36:48;9.82;;;4.60;;
70806;SDS011;58882;52.170;5.386;2023-05-10T09:39:34;8.65;;;3.90;;
70806;SDS011;58882;52.170;5.386;2023-05-10T09:42:22;6.80;;;3.53;;
70806;SDS011;58882;52.170;5.386;2023-05-10T09:44:59;8.60;;;3.63;;
70806;SDS011;58882;52.170;5.386;2023-05-10T09:48:02;7.63;;;3.35;;
70806;SDS011;58882;52.170;5.386;2023-05-10T09:50:42;7.72;;;3.55;;
70806;SDS011;58882;52.170;5.386;2023-05-10T09:53:29;12.07;;;3.88;;
70806;SDS011;58882;52.170;5.386;2023-05-10T09:56:09;7.22;;;3.85;;
70806;SDS011;58882;52.170;5.386;2023-05-10T09:59:03;7.05;;;3.50;;
70806;SDS011;58882;52.170;5.386;2023-05-10T10:01:49;9.73;;;4.13;;
70806;SDS011;58882;52.170;5.386;2023-05-10T10:04:40;8.50;;;4.38;;
70806;SDS011;58882;52.170;5.386;2023-05-10T10:07:23;8.55;;;4.28;;
70806;SDS011;58882;52.170;5.386;2023-05-10T10:10:10;9.18;;;4.63;;
70806;SDS011;58882;52.170;5.386;2023-05-10T10:12:51;9.35;;;4.85;;
70806;SDS011;58882;52.170;5.386;2023-05-10T10:15:39;10.95;;;4.65;;
70806;SDS011;58882;52.170;5.386;2023-05-10T10:18:21;13.60;;;5.50;;
70806;SDS011;58882;52.170;5.386;2023-05-10T10:21:08;10.00;;;5.25;;
70806;SDS011;58882;52.170;5.386;2023-05-10T10:23:49;10.82;;;5.53;;
70806;SDS011;58882;52.170;5.386;2023-05-10T10:26:44;10.25;;;5.22;;
70806;SDS011;58882;52.170;5.386;2023-05-10T10:29:26;9.95;;;4.85;;
70806;SDS011;58882;52.170;5.386;2023-05-10T10:35:02;12.27;;;5.43;;
70806;SDS011;58882;52.170;5.386;2023-05-10T10:37:57;8.65;;;4.47;;
70806;SDS011;58882;52.170;5.386;2023-05-10T10:40:37;10.75;;;5.10;;
70806;SDS011;58882;52.170;5.386;2023-05-10T10:43:31;12.63;;;5.50;;
70806;SDS011;58882;52.170;5.386;2023-05-10T10:46:15;11.90;;;5.88;;
70806;SDS011;58882;52.170;5.386;2023-05-10T10:49:10;12.65;;;5.60;;
70806;SDS011;58882;52.170;5.386;2023-05-10T10:55:19;12.48;;;5.10;;
70806;SDS011;58882;52.170;5.386;2023-05-10T10:58:04;12.45;;;5.32;;
70806;SDS011;58882;52.170;5.386;2023-05-10T11:01:08;10.40;;;5.25;;
70806;SDS011;58882;52.170;5.386;2023-05-10T11:06:51;11.35;;;4.50;;
70806;SDS011;58882;52.170;5.386;2023-05-10T11:10:04;10.68;;;4.57;;
70806;SDS011;58882;52.170;5.386;2023-05-10T11:15:48;10.10;;;5.13;;
70806;SDS011;58882;52.170;5.386;2023-05-10T11:18:36;8.52;;;4.93;;
70806;SDS011;58882;52.170;5.386;2023-05-10T11:21:17;10.48;;;4.82;;
70806;SDS011;58882;52.170;5.386;2023-05-10T11:24:15;10.30;;;5.13;;
70806;SDS011;58882;52.170;5.386;2023-05-10T11:26:56;11.57;;;5.60;;
70806;SDS011;58882;52.170;5.386;2023-05-10T11:29:43;9.35;;;4.75;;
70806;SDS011;58882;52.170;5.386;2023-05-10T11:32:23;10.98;;;5.32;;
70806;SDS011;58882;52.170;5.386;2023-05-10T11:35:11;12.35;;;5.10;;
70806;SDS011;58882;52.170;5.386;2023-05-10T11:37:47;10.10;;;4.88;;
70806;SDS011;58882;52.170;5.386;2023-05-10T11:40:41;8.93;;;4.55;;
70806;SDS011;58882;52.170;5.386;2023-05-10T11:43:23;8.20;;;4.13;;
70806;SDS011;58882;52.170;5.386;2023-05-10T11:46:12;8.55;;;4.28;;
70806;SDS011;58882;52.170;5.386;2023-05-10T11:48:53;8.68;;;4.68;;
70806;SDS011;58882;52.170;5.386;2023-05-10T11:51:49;10.52;;;4.47;;
70806;SDS011;58882;52.170;5.386;2023-05-10T11:54:29;8.55;;;4.25;;
70806;SDS011;58882;52.170;5.386;2023-05-10T11:57:18;11.15;;;4.65;;
70806;SDS011;58882;52.170;5.386;2023-05-10T11:59:59;10.32;;;4.32;;
70806;SDS011;58882;52.170;5.386;2023-05-10T12:02:53;11.07;;;3.92;;
70806;SDS011;58882;52.170;5.386;2023-05-10T12:05:33;8.80;;;3.90;;
70806;SDS011;58882;52.170;5.386;2023-05-10T12:08:22;6.45;;;3.58;;
70806;SDS011;58882;52.170;5.386;2023-05-10T12:11:07;10.95;;;4.05;;
70806;SDS011;58882;52.170;5.386;2023-05-10T12:13:55;10.40;;;3.75;;
70806;SDS011;58882;52.170;5.386;2023-05-10T12:16:35;7.60;;;3.60;;
70806;SDS011;58882;52.170;5.386;2023-05-10T12:19:22;7.60;;;3.58;;
70806;SDS011;58882;52.170;5.386;2023-05-10T12:22:04;8.07;;;3.20;;
70806;SDS011;58882;52.170;5.386;2023-05-10T12:24:51;8.23;;;3.95;;
70806;SDS011;58882;52.170;5.386;2023-05-10T12:27:32;8.32;;;4.03;;
70806;SDS011;58882;52.170;5.386;2023-05-10T12:30:22;7.72;;;3.47;;
70806;SDS011;58882;52.170;5.386;2023-05-10T12:33:07;8.15;;;3.95;;
70806;SDS011;58882;52.170;5.386;2023-05-10T12:35:58;7.85;;;3.22;;
70806;SDS011;58882;52.170;5.386;2023-05-10T12:38:39;6.75;;;3.17;;
70806;SDS011;58882;52.170;5.386;2023-05-10T12:41:37;6.80;;;3.05;;
70806;SDS011;58882;52.170;5.386;2023-05-10T12:44:17;5.40;;;3.03;;
70806;SDS011;58882;52.170;5.386;2023-05-10T12:47:04;8.93;;;3.33;;
70806;SDS011;58882;52.170;5.386;2023-05-10T12:49:45;7.15;;;3.40;;
70806;SDS011;58882;52.170;5.386;2023-05-10T12:52:39;6.38;;;3.13;;
70806;SDS011;58882;52.170;5.386;2023-05-10T12:55:12;7.70;;;2.97;;
70806;SDS011;58882;52.170;5.386;2023-05-10T12:58:06;6.00;;;2.40;;
70806;SDS011;58882;52.170;5.386;2023-05-10T13:00:39;5.20;;;2.47;;
70806;SDS011;58882;52.170;5.386;2023-05-10T13:03:33;5.80;;;2.40;;
70806;SDS011;58882;52.170;5.386;2023-05-10T13:06:13;4.85;;;2.45;;
70806;SDS011;58882;52.170;5.386;2023-05-10T13:09:00;6.38;;;2.33;;
70806;SDS011;58882;52.170;5.386;2023-05-10T13:11:40;4.05;;;2.17;;
70806;SDS011;58882;52.170;5.386;2023-05-10T13:14:27;5.82;;;2.13;;
70806;SDS011;58882;52.170;5.386;2023-05-10T13:17:08;3.40;;;1.92;;
70806;SDS011;58882;52.170;5.386;2023-05-10T13:19:55;4.28;;;2.15;;
70806;SDS011;58882;52.170;5.386;2023-05-10T13:22:35;6.90;;;2.20;;
70806;SDS011;58882;52.170;5.386;2023-05-10T13:25:22;5.38;;;2.40;;
70806;SDS011;58882;52.170;5.386;2023-05-10T13:28:02;5.50;;;2.45;;
70806;SDS011;58882;52.170;5.386;2023-05-10T13:30:49;8.38;;;4.03;;
70806;SDS011;58882;52.170;5.386;2023-05-10T13:33:29;10.18;;;4.55;;
70806;SDS011;58882;52.170;5.386;2023-05-10T13:36:16;10.52;;;5.18;;
70806;SDS011;58882;52.170;5.386;2023-05-10T13:38:56;10.77;;;5.45;;
70806;SDS011;58882;52.170;5.386;2023-05-10T13:41:51;11.27;;;5.43;;
70806;SDS011;58882;52.170;5.386;2023-05-10T13:44:26;11.30;;;5.35;;
70806;SDS011;58882;52.170;5.386;2023-05-10T13:47:20;11.15;;;5.82;;
70806;SDS011;58882;52.170;5.386;2023-05-10T13:49:54;12.80;;;6.18;;
70806;SDS011;58882;52.170;5.386;2023-05-10T13:52:49;12.98;;;6.10;;
70806;SDS011;58882;52.170;5.386;2023-05-10T13:55:22;13.25;;;5.95;;
70806;SDS011;58882;52.170;5.386;2023-05-10T13:58:16;11.55;;;5.47;;
70806;SDS011;58882;52.170;5.386;2023-05-10T14:00:49;12.88;;;5.68;;
70806;SDS011;58882;52.170;5.386;2023-05-10T14:03:43;14.27;;;5.60;;
70806;SDS011;58882;52.170;5.386;2023-05-10T14:06:23;13.27;;;5.68;;
70806;SDS011;58882;52.170;5.386;2023-05-10T14:09:10;12.80;;;5.40;;
70806;SDS011;58882;52.170;5.386;2023-05-10T14:11:50;12.98;;;5.95;;
70806;SDS011;58882;52.170;5.386;2023-05-10T14:14:38;11.13;;;5.55;;
70806;SDS011;58882;52.170;5.386;2023-05-10T14:17:18;10.65;;;5.57;;
70806;SDS011;58882;52.170;5.386;2023-05-10T14:20:05;10.32;;;4.70;;
70806;SDS011;58882;52.170;5.386;2023-05-10T14:22:46;12.60;;;5.70;;
70806;SDS011;58882;52.170;5.386;2023-05-10T14:25:33;10.57;;;4.95;;
70806;SDS011;58882;52.170;5.386;2023-05-10T14:28:13;10.25;;;5.55;;
70806;SDS011;58882;52.170;5.386;2023-05-10T14:31:02;11.43;;;5.80;;
70806;SDS011;58882;52.170;5.386;2023-05-10T14:33:49;11.63;;;5.72;;
70806;SDS011;58882;52.170;5.386;2023-05-10T14:36:30;11.45;;;5.20;;
70806;SDS011;58882;52.170;5.386;2023-05-10T14:39:17;10.75;;;5.15;;
70806;SDS011;58882;52.170;5.386;2023-05-10T14:41:50;12.23;;;5.30;;
70806;SDS011;58882;52.170;5.386;2023-05-10T14:44:44;10.93;;;5.40;;
70806;SDS011;58882;52.170;5.386;2023-05-10T14:47:24;13.95;;;6.00;;
70806;SDS011;58882;52.170;5.386;2023-05-10T14:50:11;13.75;;;5.28;;
70806;SDS011;58882;52.170;5.386;2023-05-10T14:53:08;10.70;;;4.90;;
70806;SDS011;58882;52.170;5.386;2023-05-10T14:56:02;14.30;;;5.45;;
70806;SDS011;58882;52.170;5.386;2023-05-10T14:58:35;10.35;;;4.90;;
70806;SDS011;58882;52.170;5.386;2023-05-10T15:01:29;11.63;;;5.55;;
70806;SDS011;58882;52.170;5.386;2023-05-10T15:04:10;10.88;;;5.35;;
70806;SDS011;58882;52.170;5.386;2023-05-10T15:06:59;12.70;;;5.53;;
70806;SDS011;58882;52.170;5.386;2023-05-10T15:09:39;11.50;;;5.82;;
70806;SDS011;58882;52.170;5.386;2023-05-10T15:12:26;11.60;;;5.63;;
70806;SDS011;58882;52.170;5.386;2023-05-10T15:15:07;11.15;;;5.22;;
70806;SDS011;58882;52.170;5.386;2023-05-10T15:17:54;12.35;;;5.55;;
70806;SDS011;58882;52.170;5.386;2023-05-10T15:20:34;12.68;;;5.90;;
70806;SDS011;58882;52.170;5.386;2023-05-10T15:23:21;11.68;;;5.68;;
70806;SDS011;58882;52.170;5.386;2023-05-10T15:26:01;12.32;;;6.40;;
70806;SDS011;58882;52.170;5.386;2023-05-10T15:28:48;13.48;;;6.40;;
70806;SDS011;58882;52.170;5.386;2023-05-10T15:31:28;12.85;;;6.10;;
70806;SDS011;58882;52.170;5.386;2023-05-10T15:34:16;12.55;;;5.72;;
70806;SDS011;58882;52.170;5.386;2023-05-10T15:37:13;14.23;;;6.50;;
70806;SDS011;58882;52.170;5.386;2023-05-10T15:39:55;9.95;;;5.63;;
70806;SDS011;58882;52.170;5.386;2023-05-10T15:42:49;13.48;;;5.90;;
70806;SDS011;58882;52.170;5.386;2023-05-10T15:45:29;11.32;;;5.65;;
70806;SDS011;58882;52.170;5.386;2023-05-10T15:48:16;11.75;;;5.85;;
70806;SDS011;58882;52.170;5.386;2023-05-10T15:50:56;10.88;;;5.35;;
70806;SDS011;58882;52.170;5.386;2023-05-10T15:53:44;11.10;;;5.68;;
70806;SDS011;58882;52.170;5.386;2023-05-10T15:56:38;13.32;;;5.40;;
70806;SDS011;58882;52.170;5.386;2023-05-10T15:59:25;12.65;;;5.20;;
70806;SDS011;58882;52.170;5.386;2023-05-10T16:02:06;11.35;;;5.25;;
70806;SDS011;58882;52.170;5.386;2023-05-10T16:04:54;11.48;;;5.43;;
70806;SDS011;58882;52.170;5.386;2023-05-10T16:07:34;10.07;;;5.20;;
70806;SDS011;58882;52.170;5.386;2023-05-10T16:10:21;11.75;;;5.60;;
70806;SDS011;58882;52.170;5.386;2023-05-10T16:13:01;13.45;;;5.38;;
70806;SDS011;58882;52.170;5.386;2023-05-10T16:15:48;12.65;;;5.72;;
70806;SDS011;58882;52.170;5.386;2023-05-10T16:18:28;11.18;;;5.50;;
70806;SDS011;58882;52.170;5.386;2023-05-10T16:21:15;12.00;;;5.35;;
70806;SDS011;58882;52.170;5.386;2023-05-10T16:23:55;10.50;;;5.40;;
70806;SDS011;58882;52.170;5.386;2023-05-10T16:26:49;11.55;;;5.53;;
70806;SDS011;58882;52.170;5.386;2023-05-10T16:29:29;10.48;;;5.35;;
70806;SDS011;58882;52.170;5.386;2023-05-10T16:32:24;12.10;;;5.70;;
70806;SDS011;58882;52.170;5.386;2023-05-10T16:35:11;10.98;;;5.60;;
70806;SDS011;58882;52.170;5.386;2023-05-10T16:37:51;11.80;;;5.40;;
70806;SDS011;58882;52.170;5.386;2023-05-10T16:40:38;12.60;;;5.63;;
70806;SDS011;58882;52.170;5.386;2023-05-10T16:43:18;11.40;;;5.47;;
70806;SDS011;58882;52.170;5.386;2023-05-10T16:46:09;12.63;;;6.18;;
70806;SDS011;58882;52.170;5.386;2023-05-10T16:48:49;10.93;;;4.80;;
70806;SDS011;58882;52.170;5.386;2023-05-10T16:51:36;10.95;;;4.53;;
70806;SDS011;58882;52.170;5.386;2023-05-10T16:54:09;13.57;;;4.97;;
70806;SDS011;58882;52.170;5.386;2023-05-10T16:57:03;10.48;;;4.80;;
70806;SDS011;58882;52.170;5.386;2023-05-10T16:59:36;11.80;;;4.20;;
70806;SDS011;58882;52.170;5.386;2023-05-10T17:02:30;9.15;;;4.53;;
70806;SDS011;58882;52.170;5.386;2023-05-10T17:05:04;9.43;;;4.40;;
70806;SDS011;58882;52.170;5.386;2023-05-10T17:07:57;10.38;;;4.32;;
70806;SDS011;58882;52.170;5.386;2023-05-10T17:10:40;9.50;;;4.13;;
70806;SDS011;58882;52.170;5.386;2023-05-10T17:13:27;9.73;;;3.78;;
70806;SDS011;58882;52.170;5.386;2023-05-10T17:16:08;7.93;;;3.53;;
70806;SDS011;58882;52.170;5.386;2023-05-10T17:18:55;8.23;;;4.00;;
70806;SDS011;58882;52.170;5.386;2023-05-10T17:21:35;9.98;;;4.35;;
70806;SDS011;58882;52.170;5.386;2023-05-10T17:24:22;7.75;;;3.70;;
70806;SDS011;58882;52.170;5.386;2023-05-10T17:27:16;8.98;;;3.50;;
70806;SDS011;58882;52.170;5.386;2023-05-10T17:29:56;8.38;;;3.67;;
70806;SDS011;58882;52.170;5.386;2023-05-10T17:32:51;9.07;;;4.05;;
70806;SDS011;58882;52.170;5.386;2023-05-10T17:35:37;12.07;;;4.90;;
70806;SDS011;58882;52.170;5.386;2023-05-10T17:38:17;8.18;;;4.00;;
70806;SDS011;58882;52.170;5.386;2023-05-10T17:41:12;9.20;;;4.22;;
70806;SDS011;58882;52.170;5.386;2023-05-10T17:43:45;9.88;;;4.03;;
70806;SDS011;58882;52.170;5.386;2023-05-10T17:46:39;11.18;;;4.45;;
70806;SDS011;58882;52.170;5.386;2023-05-10T17:49:12;9.55;;;4.60;;
70806;SDS011;58882;52.170;5.386;2023-05-10T17:52:06;9.20;;;4.40;;
70806;SDS011;58882;52.170;5.386;2023-05-10T17:54:39;9.95;;;4.72;;